Terminal Aerodrome Forecast
Issued by NWS Hastings, NE

Home | Current Version | Previous Version | Text Only | Print | Product List | Glossary On
Versions: 1 2 3 4 5 6 7 8 9 10 11 12 13 14
000
FTUS45 KGID 301801 RRA
TAFEAR
TAF
KEAR 301801Z 3018/3118 18011KT P6SM OVC200
     FM302100 18012G19KT P6SM BKN080
     FM310300 19009KT P6SM -RA OVC050
     FM310900 19008KT 5SM -RASN OVC025
     FM311200 18008KT 2SM -SN OVC008
      AMD LTD TO CLD VIS AND WIND=

USA.gov is the U.S. government's official web portal to all federal, state and local government web resources and services.